Terminal Aerodrome Forecast
Issued by NWS

Home | Current Version | Previous Version | Text Only | Print | Product List | Glossary On
Versions: 1 2 3 4 5 6 7 8 9 10 11 12 13 14 15 16 17 18 19 20 21 22
000
FTUS44 KBMX 201417 AAA
TAFMGM
TAF AMD
KMGM 201417Z 2014/2112 VRB02KT P6SM SCT020
     FM201800 11007KT P6SM VCTS SCT050CB
     FM210200 08005KT P6SM SCT250
     FM210900 08006KT P6SM OVC007=

USA.gov is the U.S. government's official web portal to all federal, state and local government web resources and services.